createdAt,value
2018-10-16T00:00:27.782Z,9.4
2018-10-16T00:01:17.567Z,9.4
2018-10-16T00:02:08.185Z,9.4
2018-10-16T00:02:58.491Z,9.4
2018-10-16T00:03:47.179Z,9.6
2018-10-16T00:04:38.091Z,9.6
2018-10-16T00:05:27.882Z,9.6
2018-10-16T00:06:18.225Z,9.6
2018-10-16T00:07:08.528Z,9.6
2018-10-16T00:25:22.151Z,8.9
2018-10-16T00:26:11.911Z,8.9
2018-10-16T00:27:01.722Z,8.9
2018-10-16T00:27:51.488Z,8.9
2018-10-16T00:28:41.844Z,8.9
2018-10-16T00:29:32.199Z,8.9
2018-10-16T00:30:22.516Z,8.9
2018-10-16T00:31:12.306Z,8.9
2018-10-16T00:32:02.094Z,8.8
2018-10-16T00:32:52.261Z,8.8
2018-10-16T00:33:42.498Z,8.8
2018-10-16T00:34:32.530Z,8.7
2018-10-16T00:35:22.882Z,8.7
2018-10-16T00:36:12.336Z,8.7
2018-10-16T00:37:01.884Z,8.7
2018-10-16T00:37:52.767Z,8.8
2018-10-16T00:38:42.853Z,8.7
2018-10-16T00:39:32.291Z,8.7
2018-10-16T00:40:23.198Z,8.8
2018-10-16T00:41:12.163Z,8.8
2018-10-16T00:42:02.791Z,8.7
2018-10-16T00:42:53.141Z,8.6
2018-10-16T00:43:43.216Z,8.6
2018-10-16T00:44:32.990Z,8.5
2018-10-16T00:45:23.371Z,8.5
2018-10-16T00:46:12.572Z,8.4
2018-10-16T00:47:03.456Z,8.4
2018-10-16T00:47:53.495Z,8.4
2018-10-16T00:48:43.632Z,8.4
2018-10-16T00:49:33.668Z,8.4
2018-10-16T00:50:23.451Z,8.5
2018-10-16T00:51:13.495Z,8.5
2018-10-16T00:52:03.845Z,8.5
2018-10-16T00:52:53.890Z,8.6
2018-10-16T00:53:43.668Z,8.6
2018-10-16T00:54:33.460Z,8.6
2018-10-16T00:55:24.123Z,8.6
2018-10-16T00:56:13.874Z,8.6
2018-10-16T00:57:04.163Z,8.6
2018-10-16T00:57:54.296Z,8.6
2018-10-16T00:58:44.035Z,8.6
2018-10-16T00:59:33.815Z,8.6
2018-10-16T01:00:24.397Z,8.6
2018-10-16T01:01:14.729Z,8.5
2018-10-16T01:02:04.844Z,8.5
2018-10-16T01:02:54.654Z,8.5
2018-10-16T01:03:44.471Z,8.4
2018-10-16T01:04:34.767Z,8.4
2018-10-16T01:05:24.826Z,8.4
2018-10-16T01:06:14.887Z,8.4
2018-10-16T01:07:04.944Z,8.3
2018-10-16T01:07:54.980Z,8.4
2018-10-16T01:08:45.107Z,8.5
2018-10-16T01:09:34.544Z,8.5
2018-10-16T01:10:25.446Z,8.6
2018-10-16T01:11:14.971Z,8.6
2018-10-16T01:12:05.282Z,8.5
2018-10-16T01:12:55.114Z,8.5
2018-10-16T01:13:45.462Z,8.5
2018-10-16T01:14:35.232Z,8.5
2018-10-16T01:15:25.549Z,8.5
2018-10-16T01:16:15.329Z,8.6
2018-10-16T01:17:05.707Z,8.6
2018-10-16T01:17:55.974Z,8.6
2018-10-16T01:18:45.504Z,8.6
2018-10-16T01:19:35.300Z,8.6
2018-10-16T01:20:25.352Z,8.6
2018-10-16T01:21:15.965Z,8.5
2018-10-16T01:22:05.500Z,8.4
2018-10-16T01:22:56.101Z,8.4
2018-10-16T01:23:45.881Z,8.3
2018-10-16T01:24:35.956Z,8.2
2018-10-16T01:25:26.305Z,8.1
2018-10-16T01:26:16.047Z,8.1
2018-10-16T01:27:06.406Z,8.1
2018-10-16T01:27:56.780Z,8.1
2018-10-16T01:28:46.242Z,8.2
2018-10-16T01:29:36.313Z,8.2
2018-10-16T01:30:26.376Z,8.3
2018-10-16T01:31:16.487Z,8.4
2018-10-16T01:32:06.783Z,8.4
2018-10-16T01:32:57.102Z,8.4
2018-10-16T01:33:46.331Z,8.4
2018-10-16T01:34:36.970Z,8.4
2018-10-16T01:35:26.452Z,8.3
2018-10-16T01:36:17.375Z,8.3
2018-10-16T01:37:07.142Z,8.3
2018-10-16T01:37:56.642Z,8.3
2018-10-16T01:38:46.968Z,8.3
2018-10-16T01:39:37.065Z,8.3
2018-10-16T01:40:27.392Z,8.3
2018-10-16T01:41:17.207Z,8.2
2018-10-16T01:42:07.507Z,8.2
2018-10-16T01:42:57.599Z,8.1
2018-10-16T01:43:47.562Z,8
2018-10-16T01:44:37.135Z,7.9
2018-10-16T01:45:27.741Z,7.9
2018-10-16T01:46:17.277Z,7.9
2018-10-16T01:47:07.864Z,7.8
2018-10-16T01:47:57.908Z,7.8
2018-10-16T01:48:48.034Z,7.8
2018-10-16T01:49:37.504Z,7.7
2018-10-16T01:50:27.574Z,7.6
2018-10-16T01:51:18.189Z,7.6
2018-10-16T01:52:07.969Z,7.5
2018-10-16T01:52:58.329Z,7.4
2018-10-16T01:53:48.351Z,7.4
2018-10-16T01:54:37.879Z,7.3
2018-10-16T01:55:28.236Z,7.3
2018-10-16T01:56:18.013Z,7.3
2018-10-16T01:57:08.902Z,7.3
2018-10-16T01:57:58.686Z,7.3
2018-10-16T01:58:48.736Z,7.3
2018-10-16T01:59:38.271Z,7.3
2018-10-16T02:00:28.306Z,7.4
2018-10-16T02:01:18.976Z,7.4
2018-10-16T02:02:09.263Z,7.4
2018-10-16T02:02:58.496Z,7.4
2018-10-16T02:03:49.103Z,7.4
2018-10-16T02:04:39.186Z,7.4
2018-10-16T02:05:28.954Z,7.5
2018-10-16T02:06:19.048Z,7.5
2018-10-16T02:07:09.086Z,7.5
2018-10-16T02:07:59.418Z,7.6
2018-10-16T02:08:49.748Z,7.6
2018-10-16T02:09:39.571Z,7.5
2018-10-16T02:10:29.618Z,7.5
2018-10-16T02:11:19.672Z,7.6
2018-10-16T02:12:09.688Z,7.6
2018-10-16T02:12:59.791Z,7.5
2018-10-16T02:13:49.577Z,7.6
2018-10-16T02:14:39.816Z,7.5
2018-10-16T02:15:29.423Z,7.5
2018-10-16T02:16:20.047Z,7.5
2018-10-16T02:17:10.111Z,7.5
2018-10-16T02:17:59.905Z,7.5
2018-10-16T02:18:50.496Z,7.5
2018-10-16T02:19:40.540Z,7.4
2018-10-16T02:20:30.358Z,7.4
2018-10-16T02:21:20.415Z,7.4
2018-10-16T02:22:10.182Z,7.4
2018-10-16T02:23:00.485Z,7.4
2018-10-16T02:23:50.651Z,7.4
2018-10-16T02:24:40.082Z,7.5
2018-10-16T02:25:30.423Z,7.5
2018-10-16T02:26:20.787Z,7.5
2018-10-16T02:27:10.851Z,7.5
2018-10-16T02:28:00.630Z,7.4
2018-10-16T02:28:50.707Z,7.4
2018-10-16T02:29:41.020Z,7.4
2018-10-16T02:30:30.528Z,7.4
2018-10-16T02:31:21.167Z,7.4
2018-10-16T02:32:11.199Z,7.4
2018-10-16T02:33:01.000Z,7.4
2018-10-16T02:33:51.309Z,7.4
2018-10-16T02:34:41.112Z,7.4
2018-10-16T02:35:31.199Z,7.4
2018-10-16T02:36:21.497Z,7.5
2018-10-16T02:37:11.578Z,7.5
2018-10-16T02:38:01.091Z,7.4
2018-10-16T02:38:51.707Z,7.4
2018-10-16T02:39:41.509Z,7.4
2018-10-16T02:40:31.529Z,7.5
2018-10-16T02:41:21.891Z,7.5
2018-10-16T02:42:11.687Z,7.5
2018-10-16T02:43:02.046Z,7.6
2018-10-16T02:43:51.807Z,7.6
2018-10-16T02:44:42.126Z,7.6
2018-10-16T02:45:31.931Z,7.6
2018-10-16T02:46:21.957Z,7.6
2018-10-16T02:47:12.361Z,7.5
2018-10-16T02:48:02.376Z,7.5
2018-10-16T02:48:52.163Z,7.5
2018-10-16T02:49:42.563Z,7.5
2018-10-16T02:50:32.264Z,7.5
2018-10-16T02:51:22.331Z,7.5
2018-10-16T02:52:12.099Z,7.5
2018-10-16T02:53:02.453Z,7.4
2018-10-16T02:53:52.797Z,7.5
2018-10-16T02:54:42.601Z,7.5
2018-10-16T02:55:32.933Z,7.6
2018-10-16T02:56:22.759Z,7.6
2018-10-16T02:57:12.499Z,7.6
2018-10-16T02:58:03.132Z,7.6
2018-10-16T02:58:53.188Z,7.6
2018-10-16T02:59:43.480Z,7.6
2018-10-16T03:00:33.555Z,7.6
2018-10-16T03:01:23.068Z,7.6
2018-10-16T03:02:13.438Z,7.5
2018-10-16T03:03:03.493Z,7.6
2018-10-16T03:03:53.567Z,7.5
2018-10-16T03:04:43.356Z,7.5
2018-10-16T03:05:33.434Z,7.5
2018-10-16T03:06:23.760Z,7.5
2018-10-16T03:07:13.213Z,7.3
2018-10-16T03:08:03.877Z,7.1
2018-10-16T03:08:53.665Z,6.9
2018-10-16T03:09:43.112Z,6.9
2018-10-16T03:10:33.744Z,6.8
2018-10-16T03:11:24.087Z,6.7
2018-10-16T03:12:13.877Z,6.7
2018-10-16T03:13:03.951Z,6.6
2018-10-16T03:13:54.020Z,6.6
2018-10-16T03:14:44.049Z,6.4
2018-10-16T03:15:34.409Z,6.4
2018-10-16T03:16:24.199Z,6.4
2018-10-16T03:17:14.252Z,6.3
2018-10-16T03:18:04.595Z,6.3
2018-10-16T03:18:54.361Z,6.3
2018-10-16T03:19:44.134Z,6.2
2018-10-16T03:20:34.727Z,6.1
2018-10-16T03:21:24.256Z,6.1
2018-10-16T03:22:14.879Z,5.9
2018-10-16T03:23:04.955Z,5.9
2018-10-16T03:23:55.046Z,5.9
2018-10-16T03:24:44.803Z,5.8
2018-10-16T03:25:34.593Z,5.8
2018-10-16T03:26:25.448Z,5.8
2018-10-16T03:27:14.999Z,5.8
2018-10-16T03:28:05.039Z,5.7
2018-10-16T03:28:55.096Z,5.7
2018-10-16T03:29:45.496Z,5.8
2018-10-16T03:30:35.243Z,5.8
2018-10-16T03:31:25.281Z,5.8
2018-10-16T03:32:15.365Z,5.8
2018-10-16T03:33:05.411Z,5.9
2018-10-16T03:33:55.760Z,5.9
2018-10-16T03:34:45.776Z,5.9
2018-10-16T03:35:36.097Z,5.9
2018-10-16T03:36:25.408Z,5.8
2018-10-16T03:37:15.415Z,5.9
2018-10-16T03:38:05.213Z,5.9
2018-10-16T03:38:55.822Z,5.9
2018-10-16T03:39:46.165Z,5.9
2018-10-16T03:40:36.247Z,5.9
2018-10-16T03:41:26.068Z,5.9
2018-10-16T03:42:16.385Z,5.9
2018-10-16T03:43:06.414Z,5.9
2018-10-16T03:43:56.512Z,6
2018-10-16T03:44:46.257Z,6
2018-10-16T03:45:36.317Z,6
2018-10-16T03:46:25.822Z,6
2018-10-16T03:47:16.521Z,6
2018-10-16T03:48:06.772Z,6.1
2018-10-16T03:48:56.576Z,6.1
2018-10-16T03:49:46.637Z,6.1
2018-10-16T03:50:36.724Z,6.1
2018-10-16T03:51:26.752Z,6
2018-10-16T03:52:16.826Z,6.1
2018-10-16T03:53:07.144Z,6.1
2018-10-16T03:53:56.964Z,6.1
2018-10-16T03:54:47.249Z,6.1
2018-10-16T03:55:37.333Z,6
2018-10-16T03:56:27.412Z,6
2018-10-16T03:57:18.015Z,6.1
2018-10-16T03:58:07.531Z,6.1
2018-10-16T03:58:57.306Z,6.1
2018-10-16T03:59:47.663Z,6.1
2018-10-16T04:00:37.729Z,6.1
2018-10-16T04:01:27.769Z,6.1
2018-10-16T04:02:17.551Z,6.1
2018-10-16T04:03:07.874Z,6.1
2018-10-16T04:03:57.678Z,6.1
2018-10-16T04:04:47.737Z,6.1
2018-10-16T04:05:38.051Z,6.1
2018-10-16T04:06:28.274Z,6.1
2018-10-16T04:07:17.941Z,6.2
2018-10-16T04:08:08.268Z,6.2
2018-10-16T04:08:58.321Z,6.2
2018-10-16T04:09:48.123Z,6.1
2018-10-16T04:10:38.143Z,6.2
2018-10-16T04:11:28.760Z,6.2
2018-10-16T04:12:18.550Z,6.1
2018-10-16T04:13:08.652Z,6.2
2018-10-16T04:13:59.172Z,6.1
2018-10-16T04:14:48.770Z,6.1
2018-10-16T04:15:38.517Z,6.1
2018-10-16T04:16:28.310Z,6.1
2018-10-16T04:17:18.983Z,6.2
2018-10-16T04:18:08.760Z,6.2
2018-10-16T04:18:58.770Z,6.2
2018-10-16T04:19:49.125Z,6.2
2018-10-16T04:20:38.892Z,6.2
2018-10-16T04:21:29.265Z,6.1
2018-10-16T04:22:19.872Z,6.1
2018-10-16T04:23:08.817Z,6.1
2018-10-16T04:23:58.857Z,6.1
2018-10-16T04:24:49.198Z,6.1
2018-10-16T04:25:39.259Z,6.1
2018-10-16T04:26:29.327Z,6.1
2018-10-16T04:27:19.715Z,6.1
2018-10-16T04:28:09.775Z,6.2
2018-10-16T04:28:59.671Z,6.2
2018-10-16T04:29:49.849Z,6.1
2018-10-16T04:30:39.369Z,6.1
2018-10-16T04:31:29.957Z,6.1
2018-10-16T04:32:19.765Z,6.1
2018-10-16T04:33:09.264Z,6.1
2018-10-16T04:33:59.624Z,6
2018-10-16T04:34:49.401Z,6
2018-10-16T04:35:40.279Z,5.9
2018-10-16T04:36:30.337Z,5.9
2018-10-16T04:54:44.220Z,6.3
2018-10-16T04:55:34.314Z,6.3
2018-10-16T04:56:24.323Z,6.3
2018-10-16T04:57:14.670Z,6.4
2018-10-16T04:58:04.708Z,6.4
2018-10-16T04:58:54.249Z,6.4
2018-10-16T04:59:44.570Z,6.5
2018-10-16T05:00:34.945Z,6.4
2018-10-16T05:01:25.097Z,6.4
2018-10-16T05:02:14.871Z,6.3
2018-10-16T05:03:05.077Z,6.3
2018-10-16T05:03:55.045Z,6.3
2018-10-16T05:04:45.225Z,6.2
2018-10-16T05:05:34.971Z,6.1
2018-10-16T05:06:25.027Z,6.1
2018-10-16T05:07:15.237Z,6.1
2018-10-16T05:08:05.799Z,6
2018-10-16T05:08:54.955Z,5.9
2018-10-16T05:09:45.034Z,6
2018-10-16T05:10:35.687Z,6
2018-10-16T05:11:25.764Z,6.1
2018-10-16T05:12:15.484Z,6.1
2018-10-16T05:13:06.010Z,6.1
2018-10-16T05:13:55.600Z,6.2
2018-10-16T05:14:45.967Z,6.2
2018-10-16T05:15:35.990Z,6.2
2018-10-16T05:16:25.501Z,6.3
2018-10-16T05:17:15.889Z,6.3
2018-10-16T05:18:05.644Z,6.3
2018-10-16T05:18:56.017Z,6.4
2018-10-16T05:19:46.088Z,6.4
2018-10-16T05:20:36.359Z,6.5
2018-10-16T05:21:26.446Z,6.6
2018-10-16T05:22:16.515Z,6.6
2018-10-16T05:23:06.546Z,6.6
2018-10-16T05:23:56.344Z,6.7
2018-10-16T05:24:46.746Z,6.7
2018-10-16T05:25:36.750Z,6.7
2018-10-16T05:26:26.838Z,6.8
2018-10-16T05:27:16.666Z,6.8
2018-10-16T05:28:07.008Z,6.8
2018-10-16T05:28:57.561Z,6.9
2018-10-16T05:29:46.916Z,6.9
2018-10-16T05:30:37.096Z,7
2018-10-16T05:31:28.437Z,7
2018-10-16T05:32:17.280Z,7.1
2018-10-16T05:33:07.436Z,7.1
2018-10-16T05:33:57.101Z,7.1
2018-10-16T05:34:47.593Z,7.2
2018-10-16T05:35:37.547Z,7.3
2018-10-16T05:36:27.516Z,7.3
2018-10-16T05:37:17.031Z,7.4
2018-10-16T05:38:07.648Z,7.4
2018-10-16T05:38:58.070Z,7.4
2018-10-16T05:39:47.789Z,7.5
2018-10-16T05:40:37.315Z,7.6
2018-10-16T05:41:27.918Z,7.6
2018-10-16T05:42:17.676Z,7.6
2018-10-16T05:43:07.762Z,7.6
2018-10-16T05:43:58.088Z,7.7
2018-10-16T05:44:48.159Z,7.6
2018-10-16T05:45:38.205Z,7.6
2018-10-16T05:46:28.551Z,7.8
2018-10-16T05:47:18.607Z,7.8
2018-10-16T05:48:08.118Z,7.9
2018-10-16T05:48:58.578Z,7.9
2018-10-16T05:49:48.511Z,7.9
2018-10-16T05:50:38.599Z,7.9
2018-10-16T05:51:28.898Z,8
2018-10-16T05:52:17.880Z,8.1
2018-10-16T05:53:08.801Z,8.1
2018-10-16T05:53:58.343Z,8.3
2018-10-16T05:54:48.914Z,8.3
2018-10-16T05:55:38.954Z,8.4
2018-10-16T05:56:29.011Z,8.6
2018-10-16T05:57:19.119Z,8.8
2018-10-16T05:58:08.903Z,8.8
2018-10-16T05:58:58.888Z,8.8
2018-10-16T05:59:48.973Z,8.8
2018-10-16T06:00:39.057Z,8.9
2018-10-16T06:01:29.322Z,8.9
2018-10-16T06:02:18.583Z,9.1
2018-10-16T06:03:09.498Z,9.1
2018-10-16T06:03:59.005Z,9.3
2018-10-16T06:04:49.371Z,9.3
2018-10-16T06:05:40.367Z,9.4
2018-10-16T06:06:29.758Z,9.5
2018-10-16T06:07:19.491Z,9.6
2018-10-16T06:08:09.313Z,9.7
2018-10-16T06:08:59.365Z,9.8
2018-10-16T06:09:49.998Z,9.9
2018-10-16T06:10:39.568Z,9.9
2018-10-16T06:11:29.562Z,10
2018-10-16T06:12:20.746Z,9.9
2018-10-16T06:13:09.972Z,9.8
2018-10-16T06:14:00.362Z,9.8
2018-10-16T06:14:50.122Z,9.8
2018-10-16T06:15:40.195Z,10.1
2018-10-16T06:16:30.485Z,10.3
2018-10-16T06:17:20.522Z,10.3
2018-10-16T06:18:10.312Z,10.4
2018-10-16T06:19:00.102Z,10.6
2018-10-16T06:19:50.161Z,10.7
2018-10-16T06:20:41.082Z,10.9
2018-10-16T06:21:30.554Z,11
2018-10-16T06:22:20.636Z,11.1
2018-10-16T06:23:10.379Z,11
2018-10-16T06:24:01.011Z,11.1
2018-10-16T06:24:51.089Z,11.1
2018-10-16T06:25:41.150Z,11.2
2018-10-16T06:26:31.980Z,11.2
2018-10-16T06:27:21.294Z,11.3
2018-10-16T06:28:11.371Z,11.3
2018-10-16T06:29:01.126Z,11.3
2018-10-16T06:29:51.497Z,11.4
2018-10-16T06:30:41.759Z,11.5
2018-10-16T06:31:31.319Z,11.7
2018-10-16T06:32:21.073Z,11.8
2018-10-16T06:33:11.893Z,11.9
2018-10-16T06:34:01.722Z,11.9
2018-10-16T06:34:51.365Z,11.7
2018-10-16T06:35:41.931Z,11.6
2018-10-16T06:36:32.098Z,11.7
2018-10-16T06:37:21.736Z,11.8
2018-10-16T06:38:11.771Z,11.8
2018-10-16T06:39:01.861Z,11.9
2018-10-16T06:39:51.911Z,12.2
2018-10-16T06:40:42.983Z,12.2
2018-10-16T06:41:32.323Z,12.4
2018-10-16T06:42:22.089Z,12.4
2018-10-16T06:43:12.454Z,12.4
2018-10-16T06:44:02.204Z,12.6
2018-10-16T06:44:52.552Z,12.4
2018-10-16T06:45:42.355Z,12.6
2018-10-16T06:46:33.352Z,12.8
2018-10-16T06:47:23.169Z,12.8
2018-10-16T06:48:13.622Z,12.9
2018-10-16T06:49:03.066Z,12.8
2018-10-16T06:49:52.642Z,12.9
2018-10-16T06:50:42.748Z,12.9
2018-10-16T06:51:32.783Z,13
2018-10-16T06:52:22.813Z,12.9
2018-10-16T06:53:13.137Z,13
2018-10-16T06:54:02.905Z,13.1
2018-10-16T06:54:53.132Z,13.1
2018-10-16T06:55:43.067Z,13
2018-10-16T06:56:33.456Z,13.1
2018-10-16T06:57:23.493Z,13.2
2018-10-16T06:58:12.945Z,13.5
2018-10-16T06:59:03.898Z,13.6
2018-10-16T06:59:53.658Z,13.4
2018-10-16T07:00:42.569Z,13.5
2018-10-16T07:01:33.795Z,13.7
2018-10-16T07:02:23.888Z,13.8
2018-10-16T07:03:13.927Z,13.8
2018-10-16T07:04:04.260Z,13.8
2018-10-16T07:04:54.038Z,13.8
2018-10-16T07:05:43.213Z,13.6
2018-10-16T07:06:33.788Z,13.7
2018-10-16T07:07:24.617Z,13.7
2018-10-16T07:08:13.969Z,13.8
2018-10-16T07:09:04.580Z,13.9
2018-10-16T07:09:54.100Z,14.2
2018-10-16T07:10:44.489Z,14.1
2018-10-16T07:11:34.247Z,14.3
2018-10-16T07:12:24.851Z,14.3
2018-10-16T07:13:14.373Z,14
2018-10-16T07:14:04.159Z,13.7
2018-10-16T07:14:55.758Z,13.5
2018-10-16T07:15:44.547Z,13.6
2018-10-16T07:16:34.616Z,13.8
2018-10-16T07:17:25.182Z,13.9
2018-10-16T07:18:14.728Z,13.9
2018-10-16T07:19:05.087Z,14
2018-10-16T07:19:54.554Z,14.1
2018-10-16T07:20:45.422Z,14.4
2018-10-16T07:21:35.554Z,14.4
2018-10-16T07:22:24.725Z,14.3
2018-10-16T07:23:15.287Z,14.6
2018-10-16T07:24:05.557Z,14.2
2018-10-16T07:24:55.532Z,14.1
2018-10-16T07:25:45.276Z,14.1
2018-10-16T07:26:35.625Z,14.3
2018-10-16T07:27:25.697Z,14.4
2018-10-16T07:28:15.772Z,14.5
2018-10-16T07:29:05.823Z,14.6
2018-10-16T07:29:55.868Z,14.8
2018-10-16T07:30:45.646Z,14.9
2018-10-16T07:31:36.024Z,14.7
2018-10-16T07:32:26.048Z,14.8
2018-10-16T07:33:16.128Z,14.9
2018-10-16T07:34:05.909Z,14.9
2018-10-16T07:34:56.241Z,15
2018-10-16T07:35:46.036Z,15.2
2018-10-16T07:36:36.369Z,15.3
2018-10-16T07:37:26.158Z,15.2
2018-10-16T07:38:17.793Z,14.7
2018-10-16T07:39:06.951Z,15.1
2018-10-16T07:39:56.075Z,15.4
2018-10-16T07:40:46.935Z,15.3
2018-10-16T07:41:36.173Z,15.4
2018-10-16T07:42:26.859Z,15.3
2018-10-16T07:43:16.297Z,15.3
2018-10-16T07:44:06.642Z,15.4
2018-10-16T07:44:57.238Z,15.6
2018-10-16T07:45:47.027Z,15.8
2018-10-16T07:46:37.420Z,15.8
2018-10-16T07:47:26.880Z,15.4
2018-10-16T07:48:17.372Z,15.6
2018-10-16T07:49:07.017Z,15.8
2018-10-16T07:49:57.317Z,16.1
2018-10-16T07:50:47.127Z,16.1
2018-10-16T07:51:37.517Z,16.3
2018-10-16T07:52:27.255Z,16.2
2018-10-16T07:53:17.884Z,15.9
2018-10-16T07:54:07.392Z,16.1
2018-10-16T07:54:57.757Z,16.2
2018-10-16T07:55:47.829Z,16.2
2018-10-16T07:56:37.835Z,16.2
2018-10-16T07:57:28.131Z,15.9
2018-10-16T07:58:17.683Z,15.9
2018-10-16T07:59:08.029Z,16.4
2018-10-16T07:59:58.092Z,16.8
2018-10-16T08:00:48.154Z,16.6
2018-10-16T08:01:37.604Z,16.8
2018-10-16T08:02:27.236Z,16.8
2018-10-16T08:03:18.068Z,16.7
2018-10-16T08:04:08.109Z,16.8
2018-10-16T08:04:58.760Z,17.2
2018-10-16T08:05:48.571Z,17.4
2018-10-16T08:06:38.587Z,17.6
2018-10-16T08:07:27.776Z,17.6
2018-10-16T08:08:19.518Z,17.5
2018-10-16T08:09:08.778Z,17.6
2018-10-16T08:09:58.823Z,17.3
2018-10-16T08:10:48.043Z,17.2
2018-10-16T08:11:38.708Z,17.3
2018-10-16T08:12:28.433Z,17.4
2018-10-16T08:13:18.513Z,17.8
2018-10-16T08:14:08.818Z,17.8
2018-10-16T08:14:58.955Z,17.6
2018-10-16T08:15:49.287Z,17.1
2018-10-16T08:16:39.330Z,16.8
2018-10-16T08:18:19.476Z,17.4
2018-10-16T08:19:09.225Z,17.1
2018-10-16T08:19:59.291Z,16.8
2018-10-16T08:20:49.061Z,16.7
2018-10-16T08:21:39.701Z,16.4
2018-10-16T08:22:29.460Z,16.3
2018-10-16T08:23:19.515Z,16.4
2018-10-16T08:24:09.611Z,16.4
2018-10-16T08:24:59.999Z,16.8
2018-10-16T08:25:49.759Z,16.8
2018-10-16T08:26:39.773Z,16.9
2018-10-16T08:27:29.376Z,16.9
2018-10-16T08:28:20.195Z,16.8
2018-10-16T08:29:09.986Z,16.8
2018-10-16T08:30:00.307Z,17.4
2018-10-16T08:30:50.081Z,17.6
2018-10-16T08:31:40.468Z,17.6
2018-10-16T08:32:30.485Z,17.7
2018-10-16T08:33:19.686Z,17.9
2018-10-16T08:34:11.133Z,18.3
2018-10-16T08:35:00.720Z,18.9
2018-10-16T08:35:50.684Z,19
2018-10-16T08:36:41.403Z,19
2018-10-16T08:37:30.870Z,19.3
2018-10-16T08:38:20.677Z,19
2018-10-16T08:39:10.725Z,19.1
2018-10-16T08:40:00.213Z,19.3
2018-10-16T08:40:51.412Z,19.1
2018-10-16T08:41:41.192Z,19.2
2018-10-16T08:42:30.970Z,19.4
2018-10-16T08:43:20.717Z,19.5
2018-10-16T08:44:11.374Z,19.4
2018-10-16T08:45:02.000Z,19.4
2018-10-16T08:45:51.215Z,18.9
2018-10-16T08:46:41.272Z,18.8
2018-10-16T08:48:21.682Z,18.9
2018-10-16T08:49:11.738Z,19.1
2018-10-16T08:50:01.798Z,19.1
2018-10-16T08:50:51.867Z,19.4
2018-10-16T08:51:41.632Z,19.4
2018-10-16T08:52:31.437Z,19.4
2018-10-16T09:09:00.693Z,18.9
2018-10-16T09:09:51.362Z,18.8
2018-10-16T09:10:41.123Z,18.9
2018-10-16T09:12:21.228Z,19.1
2018-10-16T09:13:12.339Z,19.9
2018-10-16T09:14:02.311Z,20.1
2018-10-16T09:14:51.411Z,20.4
2018-10-16T09:15:41.448Z,20.4
2018-10-16T09:16:31.518Z,20.7
2018-10-16T09:17:21.593Z,21
2018-10-16T09:18:11.641Z,21
2018-10-16T09:19:02.255Z,20.9
2018-10-16T09:19:51.739Z,20.9
2018-10-16T09:20:42.108Z,21.2
2018-10-16T09:21:32.151Z,21.4
2018-10-16T09:22:22.246Z,21.2
2018-10-16T09:23:11.747Z,21.6
2018-10-16T09:24:02.083Z,21.8
2018-10-16T09:24:52.261Z,21.8
2018-10-16T09:25:42.710Z,21.3
2018-10-16T09:27:22.307Z,21.2
2018-10-16T09:28:12.363Z,20.8
2018-10-16T09:29:02.712Z,20.3
2018-10-16T09:29:52.501Z,20.7
2018-10-16T09:30:42.784Z,20.7
2018-10-16T09:31:32.600Z,20.4
2018-10-16T09:32:22.962Z,21
2018-10-16T09:33:12.744Z,20.9
2018-10-16T09:34:03.105Z,20.6
2018-10-16T09:34:52.572Z,21
2018-10-16T09:35:43.175Z,21.2
2018-10-16T09:36:33.255Z,21.5
2018-10-16T09:37:23.529Z,21.9
2018-10-16T09:38:13.408Z,22.3
2018-10-16T09:39:02.869Z,22.3
2018-10-16T09:39:53.242Z,22.3
2018-10-16T09:40:43.547Z,22.1
2018-10-16T09:41:33.382Z,22.1
2018-10-16T09:42:23.189Z,22.3
2018-10-16T09:43:13.232Z,22
2018-10-16T09:44:05.096Z,22.3
2018-10-16T09:44:53.966Z,22
2018-10-16T09:45:43.727Z,22.1
2018-10-16T09:46:33.727Z,21.8
2018-10-16T09:47:24.069Z,21.8
2018-10-16T09:48:13.527Z,21.5
2018-10-16T09:49:03.897Z,20.8
2018-10-16T09:50:44.007Z,21.6
2018-10-16T09:51:34.376Z,22.2
2018-10-16T09:52:24.452Z,22.4
2018-10-16T09:53:14.499Z,22.1
2018-10-16T09:54:03.981Z,22.1
2018-10-16T09:54:54.874Z,22.4
2018-10-16T09:55:44.679Z,22.6
2018-10-16T09:56:34.456Z,22.6
2018-10-16T09:57:23.641Z,22.4
2018-10-16T09:58:14.299Z,22.5
2018-10-16T09:59:04.646Z,22.4
2018-10-16T09:59:54.651Z,22.6
2018-10-16T10:00:45.073Z,22.6
2018-10-16T10:01:34.822Z,22.5
2018-10-16T10:02:25.224Z,22.6
2018-10-16T10:03:14.079Z,22.9
2018-10-16T10:04:05.296Z,22.8
2018-10-16T10:04:55.301Z,22.6
2018-10-16T10:05:45.123Z,22.7
2018-10-16T10:06:35.196Z,22.9
2018-10-16T10:07:25.556Z,22.9
2018-10-16T10:08:15.316Z,23.1
2018-10-16T10:09:05.109Z,22.6
2018-10-16T10:09:55.436Z,22.5
2018-10-16T10:10:45.530Z,22.4
2018-10-16T10:11:36.121Z,23.1
2018-10-16T10:12:25.620Z,23.3
2018-10-16T10:13:15.976Z,23.5
2018-10-16T10:14:06.033Z,23.4
2018-10-16T10:14:55.511Z,23.1
2018-10-16T10:15:45.888Z,23.3
2018-10-16T10:16:36.445Z,23.1
2018-10-16T10:17:26.260Z,22.4
2018-10-16T10:18:16.083Z,22.8
2018-10-16T10:19:05.557Z,22.3
2018-10-16T10:19:56.177Z,21.9
2018-10-16T10:20:46.530Z,21.7
2018-10-16T10:21:36.520Z,21.2
2018-10-16T10:22:26.640Z,21.3
2018-10-16T10:23:16.730Z,21.6
2018-10-16T10:24:06.760Z,21.7
2018-10-16T10:24:56.532Z,22
2018-10-16T10:25:46.633Z,22.1
2018-10-16T10:26:35.799Z,22.4
2018-10-16T10:27:26.722Z,22
2018-10-16T10:28:16.803Z,21.9
2018-10-16T10:29:07.170Z,22
2018-10-16T10:29:56.916Z,21.8
2018-10-16T10:30:46.439Z,22.3
2018-10-16T10:31:37.040Z,22.7
2018-10-16T10:32:27.394Z,23.1
2018-10-16T10:33:17.179Z,23.4
2018-10-16T10:34:07.235Z,23.5
2018-10-16T10:34:57.569Z,23.3
2018-10-16T10:35:47.656Z,23.3
2018-10-16T10:36:37.714Z,22.9
2018-10-16T10:37:27.468Z,23.1
2018-10-16T10:38:17.554Z,23.3
2018-10-16T10:39:07.573Z,22.9
2018-10-16T10:39:57.676Z,23.3
2018-10-16T10:40:47.718Z,23.5
2018-10-16T10:41:37.831Z,23.6
2018-10-16T10:42:28.195Z,23.5
2018-10-16T10:43:18.250Z,23.2
2018-10-16T10:44:07.708Z,22.9
2018-10-16T10:44:58.360Z,23.3
2018-10-16T10:45:48.227Z,23.3
2018-10-16T10:46:38.198Z,23.6
2018-10-16T10:47:28.529Z,23.4
2018-10-16T10:48:18.322Z,23.5
2018-10-16T10:49:08.395Z,23.7
2018-10-16T10:49:59.290Z,23.8
2018-10-16T10:50:50.505Z,23.4
2018-10-16T10:51:42.136Z,23.6
2018-10-16T10:52:28.598Z,23.1
2018-10-16T10:53:18.962Z,23.1
2018-10-16T10:54:09.022Z,23
2018-10-16T10:54:58.810Z,22.7
2018-10-16T10:55:49.158Z,23
2018-10-16T10:56:39.764Z,23.3
2018-10-16T10:57:29.463Z,23.8
2018-10-16T10:58:19.839Z,23.8
2018-10-16T10:59:09.193Z,23.6
2018-10-16T10:59:59.712Z,23.8
2018-10-16T11:00:49.821Z,24.1
2018-10-16T11:01:39.615Z,24.1
2018-10-16T11:02:29.669Z,24
2018-10-16T11:03:21.080Z,23.8
2018-10-16T11:04:09.424Z,23
2018-10-16T11:05:00.048Z,22.9
2018-10-16T11:05:49.921Z,23.6
2018-10-16T11:06:40.005Z,24.1
2018-10-16T11:07:29.985Z,24.2
2018-10-16T11:08:20.020Z,24.4
2018-10-16T11:09:11.395Z,24.1
2018-10-16T11:09:59.875Z,23.4
2018-10-16T11:10:50.266Z,23.3
2018-10-16T11:11:39.997Z,23.1
2018-10-16T11:12:30.379Z,23.4
2018-10-16T11:13:20.381Z,23.4
2018-10-16T11:14:10.201Z,23.3
2018-10-16T11:15:00.825Z,23.4
2018-10-16T11:15:50.651Z,23.4
2018-10-16T11:16:40.682Z,23.4
2018-10-16T11:17:30.470Z,23.3
2018-10-16T11:18:20.276Z,23.4
2018-10-16T11:19:10.641Z,23.3
2018-10-16T11:20:00.953Z,23.7
2018-10-16T11:20:51.030Z,23.8
2018-10-16T11:21:41.004Z,24.2
2018-10-16T11:22:30.824Z,23.9
2018-10-16T11:23:21.337Z,23.5
2018-10-16T11:24:11.228Z,23.8
2018-10-16T11:25:01.240Z,23.6
2018-10-16T11:25:51.320Z,23.6
2018-10-16T11:26:41.108Z,23.9
2018-10-16T11:27:31.175Z,23.3
2018-10-16T11:28:21.553Z,23.3
2018-10-16T11:29:11.003Z,23.7
2018-10-16T11:30:01.593Z,24.1
2018-10-16T11:30:51.155Z,24
2018-10-16T11:31:41.792Z,23.9
2018-10-16T11:32:31.834Z,23.9
2018-10-16T11:33:21.312Z,24.3
2018-10-16T11:34:11.973Z,24.8
2018-10-16T11:35:02.017Z,24.4
2018-10-16T11:35:52.092Z,24.2
2018-10-16T11:36:42.136Z,24.1
2018-10-16T11:37:32.195Z,24.2
2018-10-16T11:38:21.934Z,23.8
2018-10-16T11:39:13.289Z,23.9
2018-10-16T11:40:02.058Z,23.4
2018-10-16T11:40:51.855Z,23.8
2018-10-16T11:41:42.472Z,24
2018-10-16T11:42:32.519Z,23.8
2018-10-16T11:43:22.610Z,23.9
2018-10-16T11:44:12.084Z,23.6
2018-10-16T11:45:03.221Z,23.3
2018-10-16T11:45:53.544Z,23.3
2018-10-16T11:46:42.274Z,23.8
2018-10-16T11:47:32.909Z,23.3
2018-10-16T11:48:22.952Z,23.4
2018-10-16T11:49:13.025Z,23.7
2018-10-16T11:50:03.593Z,24.2
2018-10-16T11:50:53.206Z,23.9
2018-10-16T11:51:42.931Z,23.7
2018-10-16T11:52:33.017Z,24.1
2018-10-16T11:53:23.039Z,24.1
2018-10-16T11:54:13.420Z,24.1
2018-10-16T11:55:03.184Z,24.1
2018-10-16T11:55:53.692Z,24.3
2018-10-16T11:56:43.294Z,24.3
2018-10-16T11:57:33.374Z,24.3
2018-10-16T11:58:23.421Z,24.3
2018-10-16T11:59:14.385Z,24.3
2018-10-16T12:00:03.844Z,24.2
2018-10-16T12:00:53.602Z,24.6
2018-10-16T12:01:43.678Z,24.4
2018-10-16T12:02:33.730Z,24.6
2018-10-16T12:03:24.081Z,24.6
2018-10-16T12:04:13.841Z,23.9
2018-10-16T12:05:03.908Z,23.7
2018-10-16T12:05:54.744Z,23.8
2018-10-16T12:06:44.315Z,23.8
2018-10-16T12:07:34.391Z,23.7
2018-10-16T12:08:24.452Z,24.1
2018-10-16T12:09:14.503Z,24.1
2018-10-16T12:10:04.570Z,23.8
2018-10-16T12:10:55.321Z,23.6
2018-10-16T12:11:44.688Z,23.6
2018-10-16T12:12:34.758Z,23.4
2018-10-16T12:13:24.838Z,23.8
2018-10-16T12:14:15.709Z,23.7